Terminal Aerodrome Forecast
Issued by NWS Sioux Falls, SD

Home | Current Version | Previous Version | Text Only | Print | Product List | Glossary On
Versions: 1 2 3 4 5 6 7 8 9 10 11 12 13
872
FTUS43 KFSD 281122
TAFHON
TAF
KHON 281122Z 2812/2912 20011KT P6SM SCT080 BKN200
     FM281700 30012KT P6SM SCT200
     FM282300 33010KT P6SM SCT250
     FM290800 VRB03KT P6SM SCT200=

USA.gov is the U.S. government's official web portal to all federal, state and local government web resources and services.